Time;durP1;ratioP1;P1;durP2;ratioP2;P2;SDS_P1;SDS_P2;PMS_P1;PMS_P2;Temp;Humidity;BMP_temperature;BMP_pressure;BME280_temperature;BME280_humidity;BME280_pressure;Samples;Min_cycle;Max_cycle;Signal;HPM_P1;HPM_P2
2022/11/02 00:01:54;;;;;;;;;;;14.40;99.90;;;;;;7409173;19;19933;-86
2022/11/02 00:04:26;;;;;;;4.45;0.60;;;14.50;99.90;;;;;;7409886;19;19917;-86
2022/11/02 00:06:55;;;;;;;3.97;0.30;;;14.50;99.90;;;;;;7406343;19;19918;-88
2022/11/02 00:09:24;;;;;;;3.55;0.20;;;14.60;99.90;;;;;;7406816;19;19918;-87
2022/11/02 00:11:52;;;;;;;4.82;0.55;;;14.60;99.90;;;;;;7406778;19;20267;-86
2022/11/02 00:14:21;;;;;;;6.32;0.63;;;14.60;99.90;;;;;;7406549;19;19918;-86
2022/11/02 00:16:50;;;;;;;5.38;1.00;;;14.60;99.90;;;;;;7408646;19;19918;-87
2022/11/02 00:19:20;;;;;;;3.75;0.93;;;14.60;99.90;;;;;;7406391;19;19911;-86
2022/11/02 00:21:51;;;;;;;7.38;1.13;;;14.70;99.90;;;;;;7408447;19;19919;-86
2022/11/02 00:24:20;;;;;;;6.82;1.13;;;14.70;99.90;;;;;;7405925;19;19925;-86
2022/11/02 00:26:49;;;;;;;7.43;0.70;;;14.60;99.90;;;;;;7405654;19;19944;-86
2022/11/02 00:29:19;;;;;;;4.28;0.73;;;14.50;99.90;;;;;;7404974;19;19910;-86
2022/11/02 00:31:48;;;;;;;4.55;0.60;;;14.50;99.90;;;;;;7406160;19;19933;-86
2022/11/02 00:34:17;;;;;;;5.63;0.60;;;14.60;99.90;;;;;;7410664;19;19911;-86
2022/11/02 00:36:46;;;;;;;5.85;0.88;;;14.60;99.90;;;;;;7410444;19;19925;-87
2022/11/02 00:39:17;;;;;;;5.40;0.50;;;14.50;99.90;;;;;;7405963;19;19922;-87
2022/11/02 00:41:46;;;;;;;5.82;0.43;;;14.60;99.90;;;;;;7406224;19;19925;-87
2022/11/02 00:44:15;;;;;;;5.10;0.43;;;14.60;99.90;;;;;;7406609;19;20332;-86
2022/11/02 00:46:44;;;;;;;4.30;0.75;;;14.60;99.90;;;;;;7405792;19;19918;-86
2022/11/02 00:49:13;;;;;;;4.07;1.00;;;14.60;99.90;;;;;;7405771;19;19923;-86
2022/11/02 00:51:42;;;;;;;3.53;0.38;;;14.70;99.90;;;;;;7405579;19;19956;-86
2022/11/02 00:54:11;;;;;;;4.70;0.80;;;14.60;99.90;;;;;;7404700;19;20257;-87
2022/11/02 00:56:42;;;;;;;7.15;0.70;;;14.50;99.90;;;;;;7405513;19;20355;-86
2022/11/02 00:59:11;;;;;;;5.40;0.73;;;14.50;99.90;;;;;;7406797;19;19918;-87
2022/11/02 01:01:46;;;;;;;5.30;0.95;;;14.40;99.90;;;;;;7407379;19;20009;-87
2022/11/02 01:04:16;;;;;;;4.57;0.35;;;14.40;99.90;;;;;;7407291;19;19922;-86
2022/11/02 01:06:45;;;;;;;5.00;0.52;;;14.40;99.90;;;;;;7403916;19;20265;-86
2022/11/02 01:09:16;;;;;;;4.13;0.60;;;14.40;99.90;;;;;;7407698;19;19925;-86
2022/11/02 01:11:48;;;;;;;5.28;0.30;;;14.40;99.90;;;;;;7405093;19;19911;-86
2022/11/02 01:14:17;;;;;;;4.93;0.68;;;14.40;99.90;;;;;;7404837;19;19914;-86
2022/11/02 01:16:46;;;;;;;3.85;0.77;;;14.50;99.90;;;;;;7404819;19;19980;-87
2022/11/02 01:19:16;;;;;;;4.70;0.47;;;14.60;99.90;;;;;;7404624;19;19915;-86
2022/11/02 01:21:44;;;;;;;5.72;0.57;;;14.80;99.90;;;;;;7406303;19;19922;-85
2022/11/02 01:24:13;;;;;;;3.42;0.22;;;14.70;99.90;;;;;;7406994;19;19917;-86
2022/11/02 01:26:42;;;;;;;4.00;0.47;;;14.70;99.90;;;;;;7404682;19;19918;-85
2022/11/02 01:29:14;;;;;;;3.53;0.40;;;14.60;99.90;;;;;;7403368;19;19925;-85
2022/11/02 01:31:43;;;;;;;4.20;0.20;;;14.50;99.90;;;;;;7404234;19;20359;-85
2022/11/02 01:34:12;;;;;;;3.65;0.30;;;14.40;99.90;;;;;;7404635;19;19918;-86
2022/11/02 01:36:41;;;;;;;5.07;0.20;;;14.40;99.90;;;;;;7404340;19;19934;-86
2022/11/02 01:39:10;;;;;;;3.15;0.47;;;14.30;99.90;;;;;;7404577;19;20380;-86
2022/11/02 01:41:39;;;;;;;3.40;0.15;;;14.30;99.90;;;;;;7405292;19;20328;-85
2022/11/02 01:44:31;;;;;;;3.42;0.40;;;14.20;99.90;;;;;;7403976;19;19926;-86
2022/11/02 01:47:05;;;;;;;1.95;0.50;;;13.90;99.90;;;;;;7405886;19;20244;-86
2022/11/02 01:49:36;;;;;;;2.72;0.20;;;13.70;99.90;;;;;;7405802;19;20336;-86
2022/11/02 01:52:08;;;;;;;4.95;0.40;;;13.80;99.90;;;;;;7404852;19;19918;-86
2022/11/02 01:54:43;;;;;;;3.15;0.20;;;13.70;99.90;;;;;;7403351;19;19930;-87
2022/11/02 01:57:15;;;;;;;2.38;0.10;;;13.60;99.90;;;;;;7406579;19;19919;-87
2022/11/02 01:59:49;;;;;;;3.75;0.73;;;13.50;99.90;;;;;;7401893;19;19918;-86
2022/11/02 02:02:22;;;;;;;3.95;0.40;;;13.40;99.90;;;;;;7402819;19;19929;-86
2022/11/02 02:04:55;;;;;;;3.50;0.32;;;13.30;99.90;;;;;;7404223;19;19919;-86
2022/11/02 02:07:26;;;;;;;3.92;0.40;;;13.10;99.90;;;;;;7405930;19;19948;-86
2022/11/02 02:09:57;;;;;;;4.68;0.40;;;12.90;99.90;;;;;;7403978;19;19943;-87
2022/11/02 02:12:27;;;;;;;3.17;0.30;;;12.80;99.90;;;;;;7406881;19;19923;-87
2022/11/02 02:14:59;;;;;;;1.67;0.10;;;12.60;99.90;;;;;;7404537;19;20266;-86
2022/11/02 02:17:39;;;;;;;2.97;0.40;;;12.50;99.90;;;;;;7407215;19;19925;-87
2022/11/02 02:20:15;;;;;;;4.07;0.32;;;12.60;99.90;;;;;;7410671;19;19939;-86
2022/11/02 02:23:10;;;;;;;5.72;0.65;;;12.40;99.90;;;;;;7411648;19;19918;-86
2022/11/02 02:25:59;;;;;;;4.57;0.77;;;12.40;99.90;;;;;;7409499;19;19929;-86
2022/11/02 02:28:37;;;;;;;6.95;1.10;;;12.30;99.90;;;;;;7408149;19;19915;-85
2022/11/02 02:31:14;;;;;;;6.60;0.93;;;12.30;99.90;;;;;;7409685;19;19930;-86
2022/11/02 02:33:49;;;;;;;8.23;0.90;;;12.30;99.90;;;;;;7410201;19;19926;-85
2022/11/02 02:36:26;;;;;;;3.80;0.40;;;12.20;99.90;;;;;;7407457;19;19919;-86
2022/11/02 02:39:02;;;;;;;7.47;0.85;;;12.30;99.90;;;;;;7411503;19;20395;-85
2022/11/02 02:41:39;;;;;;;9.18;0.75;;;12.30;99.90;;;;;;7409240;19;19923;-85
2022/11/02 02:44:16;;;;;;;5.10;0.82;;;12.20;99.90;;;;;;7408956;19;19944;-86
2022/11/02 02:46:50;;;;;;;5.35;0.63;;;12.20;99.90;;;;;;7408658;19;19918;-85
2022/11/02 02:49:24;;;;;;;5.00;0.65;;;12.40;99.90;;;;;;7409167;19;19921;-85
2022/11/02 02:51:54;;;;;;;8.48;1.73;;;12.60;99.90;;;;;;7409250;19;19931;-85
2022/11/02 02:54:27;;;;;;;6.32;0.57;;;12.70;99.90;;;;;;7408776;19;19918;-85
2022/11/02 02:56:59;;;;;;;6.93;0.93;;;12.70;99.90;;;;;;7408340;19;19921;-86
2022/11/02 02:59:34;;;;;;;2.90;0.60;;;12.80;99.90;;;;;;7406408;19;19914;-85
2022/11/02 03:02:06;;;;;;;6.45;0.70;;;12.80;99.90;;;;;;7408771;19;19915;-85
2022/11/02 03:04:35;;;;;;;6.10;0.52;;;13.00;99.90;;;;;;7408773;19;20344;-86
2022/11/02 03:07:05;;;;;;;3.08;0.32;;;13.00;99.90;;;;;;7411723;19;19925;-87
2022/11/02 03:09:41;;;;;;;9.50;0.80;;;13.10;99.90;;;;;;7405853;19;19914;-87
2022/11/02 03:12:21;;;;;;;5.85;1.15;;;13.20;99.90;;;;;;7408403;19;20347;-87
2022/11/02 03:15:05;;;;;;;7.88;0.80;;;13.20;99.90;;;;;;7409670;19;19922;-86
2022/11/02 03:17:42;;;;;;;4.60;0.88;;;13.30;99.90;;;;;;7408048;19;19930;-86
2022/11/02 03:20:20;;;;;;;3.15;0.57;;;13.30;99.90;;;;;;7408058;19;20265;-85
2022/11/02 03:22:57;;;;;;;4.60;0.50;;;13.40;99.90;;;;;;7410689;19;20396;-85
2022/11/02 03:25:31;;;;;;;6.03;0.30;;;13.20;99.90;;;;;;7407467;19;19926;-85
2022/11/02 03:28:08;;;;;;;7.05;0.63;;;13.30;99.90;;;;;;7406643;19;19921;-85
2022/11/02 03:30:46;;;;;;;2.97;0.50;;;13.30;99.90;;;;;;7409238;19;19914;-84
2022/11/02 03:33:23;;;;;;;2.70;0.50;;;13.30;99.90;;;;;;7408248;19;19915;-85
2022/11/02 03:35:58;;;;;;;4.00;0.50;;;13.20;99.90;;;;;;7406386;19;19919;-83
2022/11/02 03:38:36;;;;;;;2.70;0.25;;;13.10;99.90;;;;;;7407514;19;20322;-84
2022/11/02 03:41:07;;;;;;;4.10;0.70;;;13.10;99.90;;;;;;7412129;19;20340;-84
2022/11/02 03:43:38;;;;;;;5.88;0.93;;;13.10;99.90;;;;;;7407341;19;19919;-85
2022/11/02 03:46:13;;;;;;;4.13;0.30;;;13.00;99.90;;;;;;7405588;19;20293;-85
2022/11/02 03:48:45;;;;;;;7.70;0.40;;;12.90;99.90;;;;;;7406383;19;19918;-85
2022/11/02 03:51:17;;;;;;;4.65;0.50;;;12.90;99.90;;;;;;7408858;19;19948;-85
2022/11/02 03:53:51;;;;;;;3.50;0.50;;;12.90;99.90;;;;;;7409138;19;19921;-86
2022/11/02 03:56:25;;;;;;;2.65;0.22;;;13.00;99.90;;;;;;7409295;19;19934;-88
2022/11/02 03:58:54;;;;;;;4.20;0.40;;;13.00;99.90;;;;;;7406171;19;19918;-85
2022/11/02 04:01:28;;;;;;;2.65;0.40;;;13.10;99.90;;;;;;7405232;19;19919;-85
2022/11/02 04:03:57;;;;;;;5.57;0.50;;;13.00;99.90;;;;;;7411669;19;19925;-85
2022/11/02 04:06:27;;;;;;;5.75;0.45;;;13.00;99.90;;;;;;7406929;19;20357;-85
2022/11/02 04:08:56;;;;;;;5.35;1.50;;;13.00;99.90;;;;;;7406046;19;19982;-85
2022/11/02 04:19:26;;;;;;;5.32;0.40;;;13.00;99.90;;;;;;7406702;19;19922;-84
2022/11/02 04:19:37;;;;;;;4.47;0.75;;;12.90;99.90;;;;;;7406489;19;19919;-85
2022/11/02 04:27:28;;;;;;;2.28;0.40;;;12.90;99.90;;;;;;7406162;19;19966;-84
2022/11/02 04:29:57;;;;;;;2.22;0.43;;;13.00;99.90;;;;;;7404476;19;19918;-85
2022/11/02 04:35:11;;;;;;;4.57;0.43;;;13.00;99.90;;;;;;7406075;19;20345;-85
2022/11/02 04:40:21;;;;;;;3.38;0.30;;;12.80;99.90;;;;;;7405968;19;19918;-85
2022/11/02 04:42:50;;;;;;;1.75;0.30;;;12.80;99.90;;;;;;7407605;19;19914;-85
2022/11/02 04:45:19;;;;;;;2.95;0.20;;;12.80;99.90;;;;;;7404120;19;19914;-85
2022/11/02 04:47:50;;;;;;;4.22;0.47;;;12.80;99.90;;;;;;7407708;19;19929;-87
2022/11/02 04:50:19;;;;;;;4.15;0.50;;;12.70;99.90;;;;;;7403744;19;19934;-86
2022/11/02 04:52:48;;;;;;;4.13;0.28;;;12.70;99.90;;;;;;7406037;19;19918;-85
2022/11/02 04:55:17;;;;;;;4.00;0.60;;;12.70;99.90;;;;;;7406820;19;20552;-85
2022/11/02 04:57:47;;;;;;;6.65;0.40;;;12.80;99.90;;;;;;7406629;19;19926;-85
2022/11/02 05:00:17;;;;;;;4.60;0.95;;;12.90;99.90;;;;;;7407042;19;19918;-86
2022/11/02 05:02:51;;;;;;;5.63;0.43;;;12.80;99.90;;;;;;7408052;19;19930;-85
2022/11/02 05:05:20;;;;;;;5.55;0.28;;;12.80;99.90;;;;;;7407784;19;20477;-85
2022/11/02 05:07:49;;;;;;;2.42;0.30;;;12.70;99.90;;;;;;7405530;19;19919;-85
2022/11/02 05:10:19;;;;;;;4.28;0.20;;;12.80;99.90;;;;;;7403278;19;19913;-85
2022/11/02 05:12:48;;;;;;;7.85;0.47;;;12.70;99.90;;;;;;7405532;19;19907;-85
2022/11/02 05:15:17;;;;;;;2.45;0.68;;;12.80;99.90;;;;;;7404315;19;20337;-85
2022/11/02 05:17:49;;;;;;;5.53;0.40;;;12.70;99.90;;;;;;7406537;19;20344;-85
2022/11/02 05:20:21;;;;;;;3.50;0.15;;;12.60;99.90;;;;;;7406290;19;19918;-87
2022/11/02 05:22:49;;;;;;;2.03;0.30;;;12.70;99.90;;;;;;7408041;19;20370;-86
2022/11/02 05:25:18;;;;;;;2.33;0.13;;;12.80;99.90;;;;;;7404217;19;19917;-86
2022/11/02 05:27:47;;;;;;;2.15;0.30;;;12.90;99.90;;;;;;7405972;19;19918;-87
2022/11/02 05:30:16;;;;;;;3.53;0.40;;;12.90;99.90;;;;;;7403284;19;19921;-86
2022/11/02 05:32:45;;;;;;;3.65;0.52;;;12.90;99.90;;;;;;7404627;19;19915;-86
2022/11/02 05:35:14;;;;;;;5.05;0.30;;;12.90;99.90;;;;;;7406696;19;20249;-86
2022/11/02 05:37:46;;;;;;;2.45;0.20;;;13.00;99.90;;;;;;7401546;19;20434;-88
2022/11/02 05:40:18;;;;;;;4.35;0.90;;;13.10;99.90;;;;;;7407482;19;19978;-85
2022/11/02 05:42:47;;;;;;;3.92;0.47;;;13.10;99.90;;;;;;7404219;19;19921;-85
2022/11/02 05:45:16;;;;;;;4.28;0.80;;;13.20;99.90;;;;;;7404667;19;19974;-85
2022/11/02 05:47:45;;;;;;;5.00;1.08;;;13.10;99.90;;;;;;7403775;19;20283;-85
2022/11/02 05:50:14;;;;;;;6.00;0.57;;;13.10;99.90;;;;;;7403085;19;19925;-86
2022/11/02 05:52:45;;;;;;;6.40;0.73;;;13.00;99.90;;;;;;7402215;19;19932;-85
2022/11/02 05:55:15;;;;;;;6.10;1.17;;;13.00;99.90;;;;;;7405520;19;20344;-86
2022/11/02 05:57:44;;;;;;;5.88;0.90;;;12.90;99.90;;;;;;7403297;19;19921;-85
2022/11/02 06:00:13;;;;;;;4.75;0.85;;;12.80;99.90;;;;;;7403623;19;19936;-85
2022/11/02 06:02:42;;;;;;;2.63;0.93;;;12.90;99.90;;;;;;7405158;19;19922;-85
2022/11/02 06:05:11;;;;;;;4.43;0.82;;;12.90;99.90;;;;;;7403794;19;19929;-85
2022/11/02 06:07:40;;;;;;;7.32;0.93;;;12.90;99.90;;;;;;7405813;19;19922;-85
2022/11/02 06:10:12;;;;;;;4.05;1.02;;;12.90;99.90;;;;;;7403426;19;20304;-85
2022/11/02 06:12:42;;;;;;;4.20;0.70;;;12.90;99.90;;;;;;7405262;19;19994;-85
2022/11/02 06:15:12;;;;;;;7.63;1.17;;;12.90;99.90;;;;;;7406096;19;20333;-85
2022/11/02 06:17:41;;;;;;;5.28;0.77;;;13.00;99.90;;;;;;7403362;19;19921;-86
2022/11/02 06:20:11;;;;;;;4.53;0.50;;;13.00;99.90;;;;;;7406398;19;19911;-85
2022/11/02 06:22:41;;;;;;;2.88;0.28;;;13.00;99.90;;;;;;7406270;19;19918;-85
2022/11/02 06:25:13;;;;;;;;;;;13.00;99.90;;;;;;7406097;19;19918;-85
2022/11/02 06:27:42;;;;;;;7.47;0.65;;;13.00;99.90;;;;;;7403806;19;19919;-85
2022/11/02 06:30:11;;;;;;;;;;;13.00;99.90;;;;;;7405114;19;19922;-86
2022/11/02 06:32:40;;;;;;;4.25;0.38;;;12.90;99.90;;;;;;7404909;19;19933;-86
2022/11/02 06:35:11;;;;;;;4.93;0.47;;;13.00;99.90;;;;;;7404566;19;19918;-85
2022/11/02 06:37:39;;;;;;;9.15;1.10;;;13.00;99.90;;;;;;7405099;19;19934;-84
2022/11/02 06:40:09;;;;;;;4.70;0.73;;;13.10;99.90;;;;;;7399578;19;20359;-88
2022/11/02 06:42:41;;;;;;;;;;;13.00;99.90;;;;;;7409754;19;19915;-89
2022/11/02 06:45:11;;;;;;;23.05;3.75;;;13.00;99.90;;;;;;7402108;19;19918;-87
2022/11/02 06:47:40;;;;;;;;;;;13.10;99.90;;;;;;7406831;19;19919;-86
2022/11/02 06:50:09;;;;;;;19.42;1.98;;;13.60;99.90;;;;;;7404293;19;19953;-86
2022/11/02 06:52:44;;;;;;;6.57;0.80;;;14.00;99.90;;;;;;7404582;19;19941;-88
2022/11/02 06:55:14;;;;;;;6.95;0.98;;;13.80;99.90;;;;;;7401542;19;19944;-84
2022/11/02 06:57:46;;;;;;;3.10;1.10;;;13.80;99.90;;;;;;7392832;19;20021;-85
2022/11/02 07:00:17;;;;;;;4.75;0.60;;;14.00;99.90;;;;;;7400767;19;19918;-88
2022/11/02 07:02:46;;;;;;;6.90;1.08;;;14.50;99.90;;;;;;7399998;19;20294;-91
2022/11/02 07:05:15;;;;;;;4.90;0.70;;;14.50;99.90;;;;;;7412786;19;20275;-92
2022/11/02 07:07:44;;;;;;;4.97;0.95;;;14.70;99.90;;;;;;7409724;19;19928;-91
2022/11/02 07:10:13;;;;;;;8.80;1.48;;;14.70;99.90;;;;;;7407811;19;19917;-93
2022/11/02 07:12:45;;;;;;;;;;;14.70;99.90;;;;;;7411053;19;19977;-85
2022/11/02 07:15:14;;;;;;;4.53;0.50;;;14.80;99.90;;;;;;7403182;19;19932;-86
2022/11/02 07:17:43;;;;;;;6.18;0.77;;;14.70;99.90;;;;;;7404355;19;19955;-84
2022/11/02 07:20:23;;;;;;;9.20;1.73;;;14.70;99.90;;;;;;7407132;19;19938;-83
2022/11/02 07:22:56;;;;;;;;;;;14.70;99.90;;;;;;7409925;19;19929;-84
2022/11/02 07:25:26;;;;;;;3.65;0.20;;;14.60;99.90;;;;;;7410619;19;19954;-84
2022/11/02 07:27:58;;;;;;;3.47;0.77;;;14.70;99.90;;;;;;7409802;19;19929;-84
2022/11/02 07:30:28;;;;;;;4.30;0.63;;;14.80;99.90;;;;;;7407388;19;19931;-84
2022/11/02 07:32:57;;;;;;;3.83;0.85;;;14.80;99.90;;;;;;7409689;19;19915;-84
2022/11/02 07:35:26;;;;;;;6.45;1.15;;;14.80;99.90;;;;;;7407278;19;20264;-84
2022/11/02 07:37:58;;;;;;;5.47;0.52;;;14.60;99.90;;;;;;7407534;19;19931;-84
2022/11/02 07:40:27;;;;;;;5.75;0.30;;;14.70;99.90;;;;;;7407412;19;19915;-84
2022/11/02 07:42:59;;;;;;;4.40;0.22;;;15.00;99.90;;;;;;7407314;19;19919;-84
2022/11/02 07:45:29;;;;;;;9.50;2.05;;;15.00;99.90;;;;;;7406988;19;19981;-85
2022/11/02 07:47:58;;;;;;;6.15;0.40;;;14.90;99.90;;;;;;7410287;19;19940;-83
2022/11/02 07:50:28;;;;;;;3.47;0.45;;;14.80;99.90;;;;;;7405828;19;20341;-83
2022/11/02 07:52:59;;;;;;;3.78;0.95;;;14.90;99.90;;;;;;7406650;19;19918;-84
2022/11/02 07:55:31;;;;;;;6.53;0.82;;;14.80;99.90;;;;;;7407114;19;19914;-83
2022/11/02 07:58:04;;;;;;;3.50;0.80;;;14.70;99.90;;;;;;7407412;19;20385;-84
2022/11/02 08:00:36;;;;;;;6.07;1.05;;;14.80;99.90;;;;;;7407439;19;19914;-83
2022/11/02 08:03:06;;;;;;;5.20;1.10;;;14.60;99.90;;;;;;7407890;19;19915;-84
2022/11/02 08:05:37;;;;;;;3.47;0.25;;;14.60;99.90;;;;;;7406854;19;19934;-83
2022/11/02 08:08:08;;;;;;;6.97;0.70;;;14.70;99.90;;;;;;7406885;19;19911;-83
2022/11/02 08:10:38;;;;;;;7.15;0.82;;;14.80;99.90;;;;;;7405467;19;20347;-84
2022/11/02 08:13:11;;;;;;;6.45;0.40;;;14.90;99.90;;;;;;7406639;19;19918;-84
2022/11/02 08:15:40;;;;;;;6.43;0.82;;;14.70;99.90;;;;;;7404109;19;19914;-84
2022/11/02 08:18:14;;;;;;;3.95;0.68;;;14.70;99.90;;;;;;7406338;19;19918;-83
2022/11/02 08:20:44;;;;;;;6.65;0.85;;;14.90;99.90;;;;;;7406593;19;19919;-84
2022/11/02 08:23:14;;;;;;;5.68;0.40;;;14.80;99.90;;;;;;7406425;19;19915;-84
2022/11/02 08:25:44;;;;;;;;;;;14.80;99.90;;;;;;7408535;19;19922;-84
2022/11/02 08:28:19;;;;;;;4.32;0.40;;;14.90;99.90;;;;;;7406028;19;20301;-84
2022/11/02 08:30:48;;;;;;;4.53;0.50;;;15.00;99.90;;;;;;7404995;19;19919;-84
2022/11/02 08:33:19;;;;;;;6.05;0.85;;;15.20;99.90;;;;;;7406344;19;19918;-84
2022/11/02 08:35:49;;;;;;;4.28;0.30;;;15.10;99.90;;;;;;7405799;19;20366;-85
2022/11/02 08:38:21;;;;;;;3.25;0.40;;;15.10;99.90;;;;;;7408318;19;20343;-84
2022/11/02 08:40:50;;;;;;;4.88;0.28;;;15.20;99.90;;;;;;7405486;19;19994;-84
2022/11/02 08:43:21;;;;;;;4.40;0.55;;;15.30;99.90;;;;;;7406395;19;19922;-84
2022/11/02 08:45:51;;;;;;;4.78;0.60;;;14.90;99.90;;;;;;7406091;19;19921;-84
2022/11/02 08:48:20;;;;;;;5.22;0.40;;;15.30;99.90;;;;;;7405734;19;19990;-84
2022/11/02 08:50:50;;;;;;;4.32;0.30;;;15.30;99.90;;;;;;7401819;19;19974;-85
2022/11/02 08:53:19;;;;;;;4.47;0.25;;;15.20;99.90;;;;;;7403814;19;19954;-84
2022/11/02 08:55:48;;;;;;;2.92;0.10;;;15.40;99.90;;;;;;7407947;19;19982;-85
2022/11/02 08:58:17;;;;;;;4.68;0.85;;;15.20;99.90;;;;;;7404376;19;20285;-85
2022/11/02 09:00:49;;;;;;;1.88;0.57;;;15.20;99.90;;;;;;7405836;19;19915;-84
2022/11/02 09:03:18;;;;;;;4.03;0.47;;;15.30;99.90;;;;;;7405025;19;20234;-85
2022/11/02 09:05:48;;;;;;;2.38;0.17;;;15.20;99.90;;;;;;7405350;19;20272;-84
2022/11/02 09:08:19;;;;;;;4.50;0.55;;;15.30;99.90;;;;;;7404935;19;19974;-84
2022/11/02 09:10:49;;;;;;;5.95;0.40;;;15.10;99.90;;;;;;7404484;19;19919;-84
2022/11/02 09:13:23;;;;;;;1.73;0.50;;;15.10;99.90;;;;;;7405137;19;20316;-85
2022/11/02 09:15:57;;;;;;;4.30;0.73;;;15.50;99.90;;;;;;7404557;19;19918;-85
2022/11/02 09:18:26;;;;;;;4.18;0.65;;;15.30;99.90;;;;;;7403553;19;19927;-85
2022/11/02 09:20:55;;;;;;;5.05;0.40;;;15.40;99.90;;;;;;7404810;19;19981;-85
2022/11/02 09:23:24;;;;;;;2.83;0.22;;;15.30;99.90;;;;;;7404901;19;19925;-84
2022/11/02 09:25:53;;;;;;;5.03;0.47;;;15.40;99.90;;;;;;7404882;19;20410;-84
2022/11/02 09:28:22;;;;;;;3.47;0.63;;;15.40;99.90;;;;;;7401912;19;19921;-85
2022/11/02 09:30:51;;;;;;;2.63;0.17;;;15.30;99.90;;;;;;7402091;19;19918;-85
2022/11/02 09:33:23;;;;;;;4.38;0.40;;;15.50;99.90;;;;;;7408277;19;19919;-85
2022/11/02 09:35:52;;;;;;;3.67;0.50;;;15.60;99.90;;;;;;7407336;19;19947;-85
2022/11/02 09:38:21;;;;;;;2.35;0.25;;;15.80;99.90;;;;;;7404148;19;19914;-86
2022/11/02 09:41:02;;;;;;;3.85;0.60;;;16.00;99.90;;;;;;7403107;19;20380;-86
2022/11/02 09:43:41;;;;;;;3.90;0.38;;;16.00;99.90;;;;;;7403211;19;19922;-86
2022/11/02 09:46:14;;;;;;;4.65;0.43;;;16.30;99.90;;;;;;7406213;19;19922;-86
2022/11/02 09:48:50;;;;;;;5.32;0.30;;;16.00;99.90;;;;;;7404178;19;20344;-85
2022/11/02 09:51:22;;;;;;;4.60;0.20;;;16.20;99.90;;;;;;7401010;19;19911;-86
2022/11/02 09:53:58;;;;;;;4.28;0.22;;;16.00;99.90;;;;;;7403857;19;19914;-85
2022/11/02 09:56:28;;;;;;;3.15;0.20;;;16.00;99.90;;;;;;7403874;19;19922;-87
2022/11/02 09:59:04;;;;;;;3.35;0.20;;;15.70;99.90;;;;;;7401356;19;19947;-86
2022/11/02 10:01:49;;;;;;;4.47;0.75;;;15.90;99.90;;;;;;7406761;19;19914;-87
2022/11/02 10:04:52;;;;;;;8.68;0.65;;;15.50;99.90;;;;;;7404649;19;19934;-86
2022/11/02 10:07:31;;;;;;;5.93;0.60;;;15.30;99.90;;;;;;7406376;19;19922;-87
2022/11/02 10:10:04;;;;;;;4.18;0.60;;;15.10;99.90;;;;;;7403147;19;19919;-86
2022/11/02 10:12:42;;;;;;;5.47;0.80;;;14.90;99.90;;;;;;7401900;19;19915;-86
2022/11/02 10:15:18;;;;;;;4.75;0.95;;;14.80;99.90;;;;;;7403351;19;19910;-85
2022/11/02 10:17:53;;;;;;;5.05;0.80;;;14.80;99.90;;;;;;7403146;19;19918;-87
2022/11/02 10:20:28;;;;;;;4.93;0.60;;;14.80;99.90;;;;;;7403012;19;19914;-87
2022/11/02 10:23:02;;;;;;;2.70;0.38;;;15.00;99.90;;;;;;7402505;19;19915;-84
2022/11/02 10:25:31;;;;;;;4.22;0.63;;;15.10;99.90;;;;;;7402754;19;19911;-87
2022/11/02 10:28:10;;;;;;;3.80;0.75;;;15.10;99.90;;;;;;7405947;19;19919;-86
2022/11/02 10:30:40;;;;;;;6.53;0.50;;;15.30;99.90;;;;;;7401805;19;19986;-85
2022/11/02 10:33:16;;;;;;;6.15;1.02;;;15.30;99.90;;;;;;7402749;19;20332;-86
2022/11/02 10:35:59;;;;;;;3.42;0.22;;;15.50;99.90;;;;;;7402523;19;19919;-85
2022/11/02 10:38:37;;;;;;;4.53;0.30;;;15.60;99.90;;;;;;7405356;19;20561;-85
2022/11/02 10:41:22;;;;;;;6.05;0.40;;;15.80;99.90;;;;;;7410501;19;19926;-85
2022/11/02 10:44:10;;;;;;;4.35;0.32;;;15.80;99.90;;;;;;7410658;19;20275;-86
2022/11/02 10:46:46;;;;;;;;;;;15.90;99.90;;;;;;7411402;19;19941;-87
2022/11/02 10:49:24;;;;;;;3.15;0.10;;;16.00;99.90;;;;;;7408230;19;19927;-86
2022/11/02 10:51:55;;;;;;;5.38;0.60;;;16.00;99.90;;;;;;7407251;19;19919;-85
2022/11/02 10:54:24;;;;;;;2.90;0.20;;;16.00;99.90;;;;;;7407698;19;19952;-85
2022/11/02 10:56:53;;;;;;;6.38;0.30;;;16.00;99.90;;;;;;7409885;19;19922;-86
2022/11/02 10:59:24;;;;;;;8.75;0.32;;;16.00;99.90;;;;;;7406548;19;19926;-86
2022/11/02 11:02:10;;;;;;;3.00;0.35;;;16.10;99.90;;;;;;7408447;19;19921;-87
2022/11/02 11:04:39;;;;;;;4.10;0.43;;;15.90;99.90;;;;;;7407387;19;19933;-86
2022/11/02 11:07:18;;;;;;;4.75;0.95;;;16.00;99.90;;;;;;7410868;19;19914;-86
2022/11/02 11:09:54;;;;;;;3.72;0.20;;;16.00;99.90;;;;;;7413000;19;19930;-86
2022/11/02 11:12:31;;;;;;;8.15;0.38;;;15.90;99.90;;;;;;7405742;19;19914;-85
2022/11/02 11:15:03;;;;;;;5.05;0.35;;;15.70;99.90;;;;;;7410143;19;19918;-89
2022/11/02 11:17:37;;;;;;;5.35;0.63;;;15.60;99.90;;;;;;7406716;19;20522;-85
2022/11/02 11:20:09;;;;;;;4.70;0.70;;;15.70;99.90;;;;;;7411158;19;19918;-89
2022/11/02 11:22:42;;;;;;;4.75;0.20;;;15.80;99.90;;;;;;7408186;19;20260;-90
2022/11/02 11:25:24;;;;;;;5.50;0.75;;;15.90;99.90;;;;;;7409526;19;19930;-88
2022/11/02 11:27:54;;;;;;;5.57;0.40;;;16.10;99.90;;;;;;7409339;19;19918;-85
2022/11/02 11:30:28;;;;;;;5.95;0.30;;;16.10;99.90;;;;;;7407928;19;19933;-86
2022/11/02 11:32:59;;;;;;;3.95;0.38;;;16.20;99.90;;;;;;7409008;19;19918;-91
2022/11/02 11:35:33;;;;;;;6.72;0.70;;;16.30;99.90;;;;;;7410588;19;19934;-86
2022/11/02 11:38:07;;;;;;;2.75;0.30;;;16.20;99.90;;;;;;7407762;19;19918;-87
2022/11/02 11:40:39;;;;;;;5.68;0.30;;;16.20;99.90;;;;;;7410032;19;20346;-89
2022/11/02 11:43:15;;;;;;;5.55;0.52;;;16.20;99.90;;;;;;7410780;19;19915;-89
2022/11/02 11:45:56;;;;;;;5.38;0.95;;;16.20;99.90;;;;;;7407506;19;20013;-85
2022/11/02 11:48:35;;;;;;;5.70;1.05;;;16.20;99.90;;;;;;7407368;19;19918;-87
2022/11/02 11:51:05;;;;;;;6.70;1.05;;;16.00;99.90;;;;;;7406493;19;19990;-85
2022/11/02 11:53:37;;;;;;;3.83;0.40;;;15.90;99.90;;;;;;7410954;19;20335;-88
2022/11/02 11:56:06;;;;;;;4.70;0.30;;;15.90;99.90;;;;;;7406643;19;20357;-86
2022/11/02 11:58:36;;;;;;;6.43;0.60;;;15.80;99.90;;;;;;7406299;19;19919;-87
2022/11/02 12:01:08;;;;;;;5.07;0.30;;;15.60;99.90;;;;;;7410122;19;19927;-85
2022/11/02 12:03:52;;;;;;;5.53;0.40;;;15.40;99.90;;;;;;7407012;19;19955;-85
2022/11/02 12:06:29;;;;;;;5.78;0.75;;;15.40;99.90;;;;;;7409485;19;19914;-86
2022/11/02 12:09:07;;;;;;;6.38;0.32;;;15.40;99.90;;;;;;7407750;19;19946;-86
2022/11/02 12:11:48;;;;;;;7.20;0.50;;;15.20;99.90;;;;;;7405698;19;19940;-86
2022/11/02 12:14:39;;;;;;;6.40;0.73;;;15.30;99.90;;;;;;7409785;19;19935;-85
2022/11/02 12:17:26;;;;;;;5.95;1.35;;;15.30;99.90;;;;;;7407507;19;19990;-87
2022/11/02 12:20:12;;;;;;;4.68;0.52;;;15.20;99.90;;;;;;7406161;19;19993;-85
2022/11/02 12:22:51;;;;;;;4.22;0.63;;;15.10;99.90;;;;;;7405926;19;19930;-87
2022/11/02 12:25:33;;;;;;;3.25;0.30;;;15.20;99.90;;;;;;7408332;19;19918;-86
2022/11/02 12:28:18;;;;;;;2.65;0.10;;;15.30;99.90;;;;;;7408518;19;19922;-88
2022/11/02 12:30:57;;;;;;;3.00;0.30;;;15.40;99.90;;;;;;7405848;19;19925;-87
2022/11/02 12:33:37;;;;;;;5.68;0.45;;;15.60;99.90;;;;;;7404323;19;19918;-86
2022/11/02 12:36:21;;;;;;;2.92;0.50;;;15.80;99.90;;;;;;7404995;19;19919;-87
2022/11/02 12:39:14;;;;;;;4.82;0.40;;;15.90;99.90;;;;;;7404249;19;19922;-86
2022/11/02 12:41:57;;;;;;;2.25;0.28;;;16.10;99.90;;;;;;7408916;19;19919;-86
2022/11/02 12:44:47;;;;;;;2.83;0.30;;;16.10;99.90;;;;;;7405746;19;19915;-87
2022/11/02 12:47:27;;;;;;;3.28;0.82;;;16.10;99.90;;;;;;7402910;19;19937;-87
2022/11/02 12:50:10;;;;;;;4.65;0.60;;;16.30;99.90;;;;;;7405299;19;20256;-86
2022/11/02 12:52:50;;;;;;;5.13;0.60;;;16.10;99.90;;;;;;7404090;19;19922;-87
2022/11/02 12:55:23;;;;;;;3.25;0.65;;;16.00;99.90;;;;;;7404291;19;20327;-87
2022/11/02 12:58:02;;;;;;;4.13;0.85;;;16.00;99.90;;;;;;7404953;19;19911;-86
2022/11/02 13:00:31;;;;;;;4.80;0.20;;;16.10;99.90;;;;;;7408194;19;19922;-87
2022/11/02 13:03:06;;;;;;;2.78;0.40;;;16.20;99.90;;;;;;7408400;19;19951;-88
2022/11/02 13:05:40;;;;;;;3.47;0.40;;;16.30;99.90;;;;;;7405993;19;19992;-87
2022/11/02 13:08:16;;;;;;;4.72;0.45;;;16.40;99.90;;;;;;7402563;19;19922;-88
2022/11/02 13:10:48;;;;;;;4.22;0.40;;;16.40;99.90;;;;;;7403661;19;19923;-88
2022/11/02 13:13:26;;;;;;;5.68;0.68;;;16.30;99.90;;;;;;7405054;19;19922;-86
2022/11/02 13:15:55;;;;;;;4.82;0.20;;;16.30;99.90;;;;;;7406351;19;20326;-87
2022/11/02 13:18:28;;;;;;;4.10;0.30;;;16.30;99.90;;;;;;7406025;19;19927;-87
2022/11/02 13:21:00;;;;;;;2.97;0.20;;;16.20;99.90;;;;;;7405177;19;19970;-87
2022/11/02 13:23:37;;;;;;;6.28;0.60;;;16.30;99.90;;;;;;7406623;19;19981;-87
2022/11/02 13:26:12;;;;;;;4.80;0.35;;;16.30;99.90;;;;;;7404541;19;21980;-87
2022/11/02 13:28:47;;;;;;;3.55;0.28;;;16.30;99.90;;;;;;7404953;19;19936;-87
2022/11/02 13:31:22;;;;;;;3.45;0.20;;;16.20;99.90;;;;;;7404464;19;19920;-87
2022/11/02 13:33:54;;;;;;;3.33;0.10;;;16.20;99.90;;;;;;7404996;19;19918;-88